createdAt,value
2018-02-10T00:00:06.130Z,99497.52
2018-02-10T00:02:33.615Z,99498.67
2018-02-10T00:05:01.109Z,99499.08
2018-02-10T00:07:28.571Z,99499.16
2018-02-10T00:09:56.050Z,99503.34
2018-02-10T00:12:23.648Z,99504.08
2018-02-10T00:14:51.242Z,99493.78
2018-02-10T00:17:18.729Z,99500.94
2018-02-10T00:19:46.204Z,99498.37
2018-02-10T00:22:25.314Z,99498.22
2018-02-10T00:24:52.775Z,99497.43
2018-02-10T00:27:20.248Z,99498.00
2018-02-10T00:29:47.735Z,99500.57
2018-02-10T00:32:15.198Z,99496.36
2018-02-10T00:34:42.675Z,99495.02
2018-02-10T00:37:10.130Z,99491.56
2018-02-10T00:42:11.431Z,99490.47
2018-02-10T00:44:38.892Z,99489.19
2018-02-10T00:47:06.365Z,99496.33
2018-02-10T00:49:33.847Z,99497.66
2018-02-10T00:52:01.314Z,99493.47
2018-02-10T00:54:28.778Z,99489.19
2018-02-10T00:56:56.248Z,99494.16
2018-02-10T00:59:23.726Z,99489.84
2018-02-10T01:01:51.243Z,99498.30
2018-02-10T01:04:18.701Z,99492.13
2018-02-10T01:06:46.146Z,99489.42
2018-02-10T01:09:13.614Z,99489.02
2018-02-10T01:11:41.074Z,99490.30
2018-02-10T01:14:08.520Z,99495.06
2018-02-10T01:16:36.112Z,99490.52
2018-02-10T01:19:03.606Z,99490.66
2018-02-10T01:21:31.103Z,99491.59
2018-02-10T01:23:58.589Z,99483.11
2018-02-10T01:26:26.032Z,99484.30
2018-02-10T01:28:53.502Z,99476.28
2018-02-10T01:31:20.962Z,99474.84
2018-02-10T01:33:48.410Z,99480.26
2018-02-10T01:36:15.892Z,99477.84
2018-02-10T01:38:43.356Z,99479.00
2018-02-10T01:41:10.806Z,99478.58
2018-02-10T01:43:38.288Z,99476.48
2018-02-10T01:46:05.751Z,99484.77
2018-02-10T01:48:33.210Z,99482.74
2018-02-10T01:51:00.679Z,99477.15
2018-02-10T01:53:28.136Z,99481.58
2018-02-10T01:55:55.612Z,99485.53
2018-02-10T01:58:23.118Z,99480.50
2018-02-10T02:00:50.574Z,99485.53
2018-02-10T02:03:18.080Z,99484.66
2018-02-10T02:05:45.546Z,99486.03
2018-02-10T02:08:13.658Z,99486.02
2018-02-10T02:10:41.141Z,99483.92
2018-02-10T02:13:08.603Z,99486.14
2018-02-10T02:15:36.057Z,99484.42
2018-02-10T02:18:03.617Z,99484.09
2018-02-10T02:20:31.246Z,99488.20
2018-02-10T02:22:58.814Z,99490.58
2018-02-10T02:25:26.279Z,99489.70
2018-02-10T02:27:53.748Z,99493.62
2018-02-10T02:30:21.236Z,99490.83
2018-02-10T02:32:48.750Z,99490.26
2018-02-10T02:35:16.208Z,99488.22
2018-02-10T02:37:43.727Z,99487.49
2018-02-10T02:40:11.208Z,99493.27
2018-02-10T02:42:39.047Z,99497.41
2018-02-10T02:45:06.526Z,99498.22
2018-02-10T02:47:33.993Z,99499.44
2018-02-10T02:50:01.534Z,99496.53
2018-02-10T02:52:29.081Z,99508.15
2018-02-10T02:54:56.536Z,99511.04
2018-02-10T02:57:23.999Z,99513.03
2018-02-10T02:59:51.450Z,99509.80
2018-02-10T03:02:18.937Z,99515.06
2018-02-10T03:04:46.417Z,99523.50
2018-02-10T03:07:13.882Z,99517.20
2018-02-10T03:09:41.471Z,99513.12
2018-02-10T03:12:09.016Z,99524.38
2018-02-10T03:14:36.554Z,99528.14
2018-02-10T03:17:04.734Z,99521.65
2018-02-10T03:19:32.226Z,99520.75
2018-02-10T03:21:59.766Z,99522.55
2018-02-10T03:24:27.254Z,99525.08
2018-02-10T03:26:54.713Z,99528.54
2018-02-10T03:29:22.429Z,99531.38
2018-02-10T03:31:50.021Z,99530.17
2018-02-10T03:34:18.132Z,99535.33
2018-02-10T03:36:48.321Z,99537.60
2018-02-10T03:39:15.800Z,99537.66
2018-02-10T03:41:43.274Z,99542.13
2018-02-10T03:44:10.751Z,99554.52
2018-02-10T03:46:38.242Z,99551.77
2018-02-10T03:49:05.727Z,99560.03
2018-02-10T03:51:33.186Z,99570.78
2018-02-10T03:54:00.681Z,99563.86
2018-02-10T03:56:28.137Z,99573.16
2018-02-10T03:58:55.600Z,99568.60
2018-02-10T04:01:23.058Z,99562.98
2018-02-10T04:03:50.514Z,99568.16
2018-02-10T04:06:18.229Z,99567.75
2018-02-10T04:08:45.700Z,99567.97
2018-02-10T04:11:13.152Z,99570.34
2018-02-10T04:13:40.628Z,99569.89
2018-02-10T04:16:08.097Z,99572.94
2018-02-10T04:18:35.729Z,99567.55
2018-02-10T04:21:03.430Z,99579.34
2018-02-10T04:23:33.042Z,99579.28
2018-02-10T04:26:00.523Z,99575.86
2018-02-10T04:28:28.155Z,99582.34
2018-02-10T04:30:55.662Z,99585.39
2018-02-10T04:33:23.112Z,99583.45
2018-02-10T04:35:50.681Z,99581.02
2018-02-10T04:38:18.267Z,99578.73
2018-02-10T04:40:45.848Z,99576.41
2018-02-10T04:43:13.371Z,99577.09
2018-02-10T04:45:41.109Z,99579.66
2018-02-10T04:48:08.709Z,99577.22
2018-02-10T04:50:36.355Z,99585.27
2018-02-10T04:53:04.797Z,99587.09
2018-02-10T04:55:32.374Z,99592.34
2018-02-10T04:58:00.107Z,99595.30
2018-02-10T05:00:27.749Z,99596.91
2018-02-10T05:02:55.227Z,99603.94
2018-02-10T05:05:22.845Z,99606.35
2018-02-10T05:07:50.463Z,99606.33
2018-02-10T05:10:18.210Z,99610.26
2018-02-10T05:12:45.750Z,99601.37
2018-02-10T05:15:13.240Z,99603.88
2018-02-10T05:17:40.708Z,99610.18
2018-02-10T05:20:08.304Z,99612.39
2018-02-10T05:22:36.204Z,99612.30
2018-02-10T05:25:03.741Z,99615.59
2018-02-10T05:27:31.445Z,99612.95
2018-02-10T05:29:58.907Z,99601.22
2018-02-10T05:32:26.476Z,99606.61
2018-02-10T05:34:53.936Z,99605.25
2018-02-10T05:37:21.534Z,99608.03
2018-02-10T05:39:48.989Z,99616.42
2018-02-10T05:42:16.592Z,99605.02
2018-02-10T05:44:44.082Z,99603.61
2018-02-10T05:47:11.535Z,99616.59
2018-02-10T05:49:40.293Z,99614.61
2018-02-10T05:52:07.764Z,99617.25
2018-02-10T05:54:35.342Z,99620.55
2018-02-10T05:57:04.466Z,99620.52
2018-02-10T05:59:32.040Z,99618.70
2018-02-10T06:01:59.590Z,99620.39
2018-02-10T06:04:27.071Z,99622.95
2018-02-10T06:06:54.531Z,99624.08
2018-02-10T06:09:22.086Z,99627.05
2018-02-10T06:11:49.651Z,99626.44
2018-02-10T06:14:17.094Z,99631.64
2018-02-10T06:16:44.554Z,99635.06
2018-02-10T06:19:11.998Z,99639.61
2018-02-10T06:21:39.442Z,99638.75
2018-02-10T06:24:06.976Z,99634.42
2018-02-10T06:26:34.521Z,99637.39
2018-02-10T06:29:01.992Z,99636.94
2018-02-10T06:31:29.479Z,99638.54
2018-02-10T06:33:56.935Z,99639.86
2018-02-10T06:36:24.446Z,99643.55
2018-02-10T06:38:51.937Z,99648.69
2018-02-10T06:41:19.382Z,99647.00
2018-02-10T06:43:46.849Z,99652.17
2018-02-10T06:46:14.307Z,99653.05
2018-02-10T06:48:41.828Z,99648.00
2018-02-10T06:51:09.318Z,99654.36
2018-02-10T06:53:36.768Z,99654.72
2018-02-10T06:56:04.239Z,99659.44
2018-02-10T06:58:31.706Z,99661.84
2018-02-10T07:00:59.146Z,99658.06
2018-02-10T07:03:26.633Z,99658.98
2018-02-10T07:05:54.094Z,99661.77
2018-02-10T07:08:21.546Z,99656.05
2018-02-10T07:10:49.019Z,99659.19
2018-02-10T07:13:16.467Z,99658.63
2018-02-10T07:15:43.951Z,99658.20
2018-02-10T07:18:11.411Z,99659.41
2018-02-10T07:20:38.853Z,99658.94
2018-02-10T07:23:06.327Z,99653.30
2018-02-10T07:25:33.787Z,99660.78
2018-02-10T07:28:01.274Z,99649.22
2018-02-10T07:30:28.764Z,99657.83
2018-02-10T07:32:56.210Z,99659.59
2018-02-10T07:35:23.677Z,99657.87
2018-02-10T07:37:51.217Z,99651.56
2018-02-10T07:40:18.768Z,99663.66
2018-02-10T07:42:46.272Z,99660.52
2018-02-10T07:45:13.817Z,99661.45
2018-02-10T07:47:41.292Z,99653.48
2018-02-10T07:50:08.758Z,99659.62
2018-02-10T07:52:36.395Z,99656.21
2018-02-10T07:55:03.858Z,99653.28
2018-02-10T07:57:31.334Z,99660.30
2018-02-10T07:59:58.787Z,99667.11
2018-02-10T08:02:26.269Z,99669.57
2018-02-10T08:04:53.738Z,99673.52
2018-02-10T08:07:21.207Z,99667.75
2018-02-10T08:09:48.708Z,99670.00
2018-02-10T08:12:16.167Z,99669.09
2018-02-10T08:14:43.659Z,99683.42
2018-02-10T08:17:11.124Z,99673.56
2018-02-10T08:19:38.577Z,99668.69
2018-02-10T08:22:06.065Z,99676.75
2018-02-10T08:24:33.535Z,99676.48
2018-02-10T08:27:00.986Z,99667.50
2018-02-10T08:29:28.458Z,99668.41
2018-02-10T08:31:55.963Z,99673.73
2018-02-10T08:34:23.448Z,99671.95
2018-02-10T08:36:50.909Z,99670.68
2018-02-10T08:39:18.372Z,99670.98
2018-02-10T08:41:45.894Z,99665.92
2018-02-10T08:44:13.362Z,99661.86
2018-02-10T08:46:40.858Z,99659.29
2018-02-10T08:49:08.349Z,99654.47
2018-02-10T08:51:35.817Z,99660.61
2018-02-10T08:54:03.308Z,99656.20
2018-02-10T08:56:30.772Z,99668.50
2018-02-10T08:58:58.254Z,99663.36
2018-02-10T09:01:25.723Z,99657.89
2018-02-10T09:03:53.187Z,99665.55
2018-02-10T09:06:20.664Z,99673.25
2018-02-10T09:08:48.120Z,99675.02
2018-02-10T09:11:15.575Z,99670.70
2018-02-10T09:13:43.055Z,99674.18
2018-02-10T09:16:10.523Z,99682.36
2018-02-10T09:18:38.149Z,99678.79
2018-02-10T09:21:05.638Z,99690.48
2018-02-10T09:23:33.119Z,99685.27
2018-02-10T09:26:00.627Z,99676.86
2018-02-10T09:28:28.136Z,99676.25
2018-02-10T09:30:55.574Z,99683.21
2018-02-10T09:33:23.044Z,99670.68
2018-02-10T09:35:50.511Z,99675.54
2018-02-10T09:38:17.990Z,99671.30
2018-02-10T09:40:45.565Z,99669.97
2018-02-10T09:43:13.028Z,99669.45
2018-02-10T09:45:40.516Z,99685.33
2018-02-10T09:48:07.999Z,99680.81
2018-02-10T09:50:35.485Z,99682.10
2018-02-10T09:53:02.953Z,99668.80
2018-02-10T09:55:30.484Z,99674.01
2018-02-10T09:57:57.971Z,99673.42
2018-02-10T10:00:25.542Z,99673.27
2018-02-10T10:02:53.047Z,99668.91
2018-02-10T10:05:20.522Z,99668.27
2018-02-10T10:07:48.008Z,99675.64
2018-02-10T10:10:15.486Z,99668.66
2018-02-10T10:12:42.973Z,99678.83
2018-02-10T10:15:10.473Z,99666.83
2018-02-10T10:17:37.967Z,99662.27
2018-02-10T10:20:05.469Z,99663.05
2018-02-10T10:22:32.949Z,99659.83
2018-02-10T10:25:00.429Z,99672.04
2018-02-10T10:27:27.948Z,99670.48
2018-02-10T10:29:55.425Z,99672.84
2018-02-10T10:32:22.903Z,99669.77
2018-02-10T10:34:50.382Z,99672.78
2018-02-10T10:37:17.848Z,99665.59
2018-02-10T10:39:45.322Z,99666.45
2018-02-10T10:42:12.828Z,99656.06
2018-02-10T10:44:40.309Z,99656.95
2018-02-10T10:47:07.792Z,99659.87
2018-02-10T10:49:35.266Z,99658.08
2018-02-10T10:52:02.751Z,99655.63
2018-02-10T10:54:30.229Z,99649.64
2018-02-10T10:56:57.680Z,99657.63
2018-02-10T10:59:25.220Z,99662.02
2018-02-10T11:01:52.718Z,99652.14
2018-02-10T11:04:20.274Z,99647.83
2018-02-10T11:06:47.746Z,99645.88
2018-02-10T11:09:15.339Z,99652.56
2018-02-10T11:11:42.837Z,99649.05
2018-02-10T11:14:10.307Z,99652.52
2018-02-10T11:16:37.851Z,99652.97
2018-02-10T11:19:05.326Z,99653.29
2018-02-10T11:21:32.831Z,99648.73
2018-02-10T11:24:00.305Z,99637.52
2018-02-10T11:26:27.819Z,99639.30
2018-02-10T11:28:55.310Z,99640.30
2018-02-10T11:31:22.785Z,99644.38
2018-02-10T11:33:50.265Z,99649.98
2018-02-10T11:36:17.719Z,99647.92
2018-02-10T11:38:45.224Z,99646.57
2018-02-10T11:41:12.742Z,99638.37
2018-02-10T11:43:40.210Z,99642.00
2018-02-10T11:46:07.719Z,99640.63
2018-02-10T11:48:35.206Z,99645.98
2018-02-10T11:51:02.691Z,99637.93
2018-02-10T11:53:30.151Z,99642.03
2018-02-10T11:55:57.833Z,99630.55
2018-02-10T11:58:25.343Z,99633.16
2018-02-10T12:00:52.807Z,99627.76
2018-02-10T12:03:20.319Z,99636.63
2018-02-10T12:05:47.811Z,99641.63
2018-02-10T12:08:15.258Z,99637.48
2018-02-10T12:10:42.772Z,99633.27
2018-02-10T12:13:10.247Z,99627.02
2018-02-10T12:15:37.788Z,99625.25
2018-02-10T12:18:05.319Z,99618.48
2018-02-10T12:20:32.829Z,99627.31
2018-02-10T12:23:00.551Z,99626.91
2018-02-10T12:25:28.058Z,99625.21
2018-02-10T12:27:55.537Z,99620.71
2018-02-10T12:30:23.059Z,99620.23
2018-02-10T12:32:51.029Z,99620.69
2018-02-10T12:37:52.879Z,99612.79
2018-02-10T12:40:21.031Z,99621.90
2018-02-10T12:42:55.035Z,99612.67
2018-02-10T12:45:23.217Z,99610.63
2018-02-10T12:47:56.373Z,99617.20
2018-02-10T12:50:24.464Z,99617.66
2018-02-10T12:52:55.900Z,99610.01
2018-02-10T12:55:25.222Z,99601.44
2018-02-10T12:57:53.981Z,99605.50
2018-02-10T13:00:23.165Z,99606.39
2018-02-10T13:03:04.841Z,99602.75
2018-02-10T13:05:33.232Z,99600.46
2018-02-10T13:08:01.140Z,99605.57
2018-02-10T13:10:29.758Z,99597.51
2018-02-10T13:12:58.960Z,99601.19
2018-02-10T13:15:28.927Z,99602.09
2018-02-10T13:17:56.831Z,99596.68
2018-02-10T13:20:27.158Z,99592.89
2018-02-10T13:22:57.890Z,99601.61
2018-02-10T13:25:25.795Z,99598.49
2018-02-10T13:27:53.546Z,99605.28
2018-02-10T13:30:21.154Z,99601.93
2018-02-10T13:32:48.805Z,99594.17
2018-02-10T13:35:16.274Z,99590.01
2018-02-10T13:37:43.745Z,99591.34
2018-02-10T13:40:11.232Z,99598.14
2018-02-10T13:42:41.378Z,99589.98
2018-02-10T13:45:08.909Z,99592.23
2018-02-10T13:47:36.382Z,99595.13
2018-02-10T13:50:03.882Z,99594.17
2018-02-10T13:52:31.387Z,99592.55
2018-02-10T13:54:58.847Z,99597.01
2018-02-10T13:57:27.195Z,99597.55
2018-02-10T13:59:54.696Z,99592.71
2018-02-10T14:02:22.161Z,99586.84
2018-02-10T14:04:49.635Z,99588.77
2018-02-10T14:07:17.104Z,99593.17
2018-02-10T14:09:44.590Z,99590.34
2018-02-10T14:12:12.148Z,99593.60
2018-02-10T14:14:39.631Z,99590.55
2018-02-10T14:17:07.774Z,99587.09
2018-02-10T14:19:35.261Z,99583.89
2018-02-10T14:22:02.744Z,99581.67
2018-02-10T14:24:30.381Z,99582.63
2018-02-10T14:26:57.868Z,99574.55
2018-02-10T14:29:25.344Z,99576.50
2018-02-10T14:31:52.822Z,99574.48
2018-02-10T14:34:20.322Z,99575.11
2018-02-10T14:36:47.795Z,99583.39
2018-02-10T14:39:15.439Z,99580.40
2018-02-10T14:41:42.967Z,99583.80
2018-02-10T14:44:10.428Z,99583.88
2018-02-10T14:46:37.954Z,99580.89
2018-02-10T14:49:05.487Z,99576.97
2018-02-10T14:51:32.989Z,99580.25
2018-02-10T14:54:00.496Z,99583.23
2018-02-10T14:56:27.956Z,99583.13
2018-02-10T14:58:55.466Z,99576.92
2018-02-10T15:01:22.954Z,99578.61
2018-02-10T15:03:50.439Z,99577.71
2018-02-10T15:06:17.997Z,99585.51
2018-02-10T15:08:45.467Z,99583.01
2018-02-10T15:11:12.946Z,99582.91
2018-02-10T15:13:40.412Z,99582.78
2018-02-10T15:18:42.480Z,99584.08
2018-02-10T15:21:09.974Z,99597.33
2018-02-10T15:23:37.444Z,99590.30
2018-02-10T15:26:04.939Z,99595.56
2018-02-10T15:28:32.419Z,99591.97
2018-02-10T15:31:11.686Z,99589.92
2018-02-10T15:33:50.899Z,99600.34
2018-02-10T15:36:18.411Z,99601.84
2018-02-10T15:38:45.905Z,99600.69
2018-02-10T15:41:13.399Z,99596.42
2018-02-10T15:43:40.912Z,99595.73
2018-02-10T15:46:08.409Z,99592.71
2018-02-10T15:48:35.929Z,99593.09
2018-02-10T15:51:03.436Z,99598.17
2018-02-10T15:53:30.908Z,99598.03
2018-02-10T15:55:58.352Z,99602.08
2018-02-10T15:58:25.885Z,99609.40
2018-02-10T16:00:53.369Z,99608.24
2018-02-10T16:03:20.840Z,99604.49
2018-02-10T16:05:48.727Z,99601.86
2018-02-10T16:08:16.586Z,99609.34
2018-02-10T16:10:44.243Z,99608.03
2018-02-10T16:13:11.734Z,99608.29
2018-02-10T16:15:39.222Z,99611.30
2018-02-10T16:18:06.704Z,99616.70
2018-02-10T16:20:34.403Z,99627.91
2018-02-10T16:23:01.912Z,99615.21
2018-02-10T16:25:29.392Z,99614.03
2018-02-10T16:27:56.889Z,99610.13
2018-02-10T16:30:24.790Z,99608.54
2018-02-10T16:32:52.279Z,99608.67
2018-02-10T16:35:19.843Z,99610.81
2018-02-10T16:37:47.351Z,99600.26
2018-02-10T16:40:14.858Z,99601.64
2018-02-10T16:42:42.352Z,99604.61
2018-02-10T16:45:09.951Z,99594.89
2018-02-10T16:47:37.433Z,99595.74
2018-02-10T16:50:04.937Z,99604.98
2018-02-10T16:52:32.420Z,99599.22
2018-02-10T16:54:59.921Z,99593.66
2018-02-10T16:57:27.437Z,99597.19
2018-02-10T16:59:54.909Z,99596.66
2018-02-10T17:02:22.393Z,99595.56
2018-02-10T17:04:50.069Z,99591.33
2018-02-10T17:07:17.526Z,99578.36
2018-02-10T17:09:45.087Z,99579.83
2018-02-10T17:12:12.557Z,99577.86
2018-02-10T17:14:40.063Z,99577.71
2018-02-10T17:17:07.536Z,99584.69
2018-02-10T17:19:35.008Z,99587.31
2018-02-10T17:22:02.507Z,99585.34
2018-02-10T17:24:30.022Z,99583.84
2018-02-10T17:26:57.513Z,99578.56
2018-02-10T17:29:25.016Z,99579.02
2018-02-10T17:31:52.537Z,99577.97
2018-02-10T17:34:20.050Z,99586.80
2018-02-10T17:36:47.533Z,99586.00
2018-02-10T17:39:15.080Z,99581.67
2018-02-10T17:41:42.662Z,99580.77
2018-02-10T17:44:10.130Z,99572.81
2018-02-10T17:46:37.644Z,99578.92
2018-02-10T17:49:05.172Z,99580.14
2018-02-10T17:51:32.643Z,99577.71
2018-02-10T17:54:00.145Z,99580.28
2018-02-10T17:56:27.679Z,99584.87
2018-02-10T17:58:55.482Z,99581.95
2018-02-10T18:01:22.973Z,99577.31
2018-02-10T18:03:50.491Z,99573.95
2018-02-10T18:06:17.970Z,99570.61
2018-02-10T18:08:45.436Z,99570.44
2018-02-10T18:11:12.991Z,99572.81
2018-02-10T18:13:40.457Z,99564.71
2018-02-10T18:16:08.011Z,99566.80
2018-02-10T18:18:35.489Z,99570.61
2018-02-10T18:21:03.026Z,99564.95
2018-02-10T18:23:30.545Z,99566.76
2018-02-10T18:25:58.062Z,99569.16
2018-02-10T18:28:25.516Z,99574.34
2018-02-10T18:30:52.996Z,99566.02
2018-02-10T18:33:20.691Z,99570.54
2018-02-10T18:35:48.171Z,99570.14
2018-02-10T18:38:15.649Z,99567.09
2018-02-10T18:40:43.530Z,99573.08
2018-02-10T18:43:11.014Z,99566.50
2018-02-10T18:45:38.530Z,99575.50
2018-02-10T18:48:05.977Z,99571.51
2018-02-10T18:50:33.471Z,99568.02
2018-02-10T18:53:00.981Z,99570.16
2018-02-10T18:55:28.447Z,99578.07
2018-02-10T18:57:55.946Z,99572.96
2018-02-10T19:00:23.554Z,99576.58
2018-02-10T19:02:51.171Z,99573.20
2018-02-10T19:05:18.647Z,99566.00
2018-02-10T19:07:46.239Z,99569.04
2018-02-10T19:10:13.700Z,99571.74
2018-02-10T19:12:41.269Z,99562.69
2018-02-10T19:15:08.826Z,99564.16
2018-02-10T19:17:36.370Z,99567.16
2018-02-10T19:20:03.892Z,99568.39
2018-02-10T19:22:31.377Z,99562.50
2018-02-10T19:24:58.841Z,99562.50
2018-02-10T19:27:26.361Z,99562.86
2018-02-10T19:29:53.848Z,99555.23
2018-02-10T19:32:21.325Z,99555.23
2018-02-10T19:34:48.808Z,99554.38
2018-02-10T19:37:16.282Z,99556.34
2018-02-10T19:39:43.779Z,99551.03
2018-02-10T19:42:11.241Z,99546.77
2018-02-10T19:44:38.725Z,99543.33
2018-02-10T19:47:06.204Z,99532.75
2018-02-10T19:49:34.844Z,99535.29
2018-02-10T19:52:02.387Z,99533.30
2018-02-10T19:54:29.886Z,99529.97
2018-02-10T19:56:57.359Z,99525.17
2018-02-10T19:59:24.829Z,99529.42
2018-02-10T20:01:52.292Z,99522.88
2018-02-10T20:04:19.793Z,99529.16
2018-02-10T20:06:47.370Z,99525.81
2018-02-10T20:09:14.895Z,99521.70
2018-02-10T20:11:42.401Z,99528.20
2018-02-10T20:14:09.892Z,99527.05
2018-02-10T20:16:37.509Z,99527.09
2018-02-10T20:19:05.007Z,99533.35
2018-02-10T20:21:32.512Z,99525.79
2018-02-10T20:24:00.017Z,99528.41
2018-02-10T20:26:27.533Z,99533.55
2018-02-10T20:28:55.015Z,99528.66
2018-02-10T20:31:22.515Z,99533.44
2018-02-10T20:33:49.998Z,99533.70
2018-02-10T20:36:17.508Z,99536.17
2018-02-10T20:38:44.995Z,99535.67
2018-02-10T20:41:12.534Z,99536.55
2018-02-10T20:43:40.022Z,99538.56
2018-02-10T20:46:07.535Z,99539.05
2018-02-10T20:48:35.052Z,99538.62
2018-02-10T20:51:02.581Z,99538.32
2018-02-10T20:53:30.087Z,99540.84
2018-02-10T20:55:57.557Z,99528.90
2018-02-10T20:58:25.041Z,99531.91
2018-02-10T21:00:52.581Z,99530.60
2018-02-10T21:03:20.073Z,99530.95
2018-02-10T21:05:47.592Z,99535.17
2018-02-10T21:08:15.058Z,99534.89
2018-02-10T21:10:42.758Z,99535.32
2018-02-10T21:13:10.277Z,99544.63
2018-02-10T21:15:37.787Z,99539.64
2018-02-10T21:18:05.768Z,99544.20
2018-02-10T21:20:33.296Z,99543.80
2018-02-10T21:23:00.803Z,99534.66
2018-02-10T21:25:28.353Z,99542.61
2018-02-10T21:27:55.840Z,99537.58
2018-02-10T21:30:23.449Z,99535.75
2018-02-10T21:32:51.193Z,99532.09
2018-02-10T21:35:18.688Z,99536.16
2018-02-10T21:37:46.188Z,99533.98
2018-02-10T21:40:13.662Z,99532.58
2018-02-10T21:42:41.482Z,99533.64
2018-02-10T21:45:09.000Z,99523.52
2018-02-10T21:47:36.573Z,99521.87
2018-02-10T21:50:04.120Z,99521.11
2018-02-10T21:52:31.621Z,99525.59
2018-02-10T21:54:59.133Z,99520.95
2018-02-10T21:57:26.693Z,99517.38
2018-02-10T21:59:54.212Z,99512.33
2018-02-10T22:02:21.721Z,99515.08
2018-02-10T22:04:49.235Z,99516.31
2018-02-10T22:07:16.745Z,99503.66
2018-02-10T22:09:44.288Z,99510.22
2018-02-10T22:12:11.947Z,99514.20
2018-02-10T22:14:39.482Z,99507.05
2018-02-10T22:17:07.114Z,99515.50
2018-02-10T22:19:34.725Z,99505.50
2018-02-10T22:22:02.451Z,99511.34
2018-02-10T22:24:29.972Z,99507.95
2018-02-10T22:26:57.530Z,99507.41
2018-02-10T22:29:25.274Z,99503.55
2018-02-10T22:31:52.826Z,99506.27
2018-02-10T22:34:20.407Z,99501.59
2018-02-10T22:36:47.926Z,99504.67
2018-02-10T22:39:16.653Z,99498.35
2018-02-10T22:41:44.151Z,99496.66
2018-02-10T22:44:11.772Z,99497.05
2018-02-10T22:46:40.976Z,99490.27
2018-02-10T22:49:08.580Z,99486.09
2018-02-10T22:51:36.112Z,99489.59
2018-02-10T22:54:03.619Z,99482.91
2018-02-10T22:56:31.099Z,99475.70
2018-02-10T22:58:58.615Z,99477.72
2018-02-10T23:01:26.111Z,99475.61
2018-02-10T23:03:53.636Z,99475.97
2018-02-10T23:06:21.129Z,99471.23
2018-02-10T23:08:48.640Z,99468.61
2018-02-10T23:11:16.155Z,99464.08
2018-02-10T23:13:43.635Z,99457.80
2018-02-10T23:16:11.099Z,99459.64
2018-02-10T23:18:38.609Z,99454.09
2018-02-10T23:21:06.091Z,99448.27
2018-02-10T23:23:33.553Z,99442.27
2018-02-10T23:26:01.168Z,99438.13
2018-02-10T23:28:28.660Z,99437.87
2018-02-10T23:30:56.127Z,99438.81
2018-02-10T23:33:23.679Z,99437.28
2018-02-10T23:35:51.142Z,99430.92
2018-02-10T23:38:18.610Z,99429.27
2018-02-10T23:40:46.096Z,99426.67
2018-02-10T23:43:13.583Z,99417.17
2018-02-10T23:45:41.067Z,99415.91
2018-02-10T23:48:08.548Z,99419.22
2018-02-10T23:50:36.020Z,99413.64
2018-02-10T23:53:03.524Z,99409.76
2018-02-10T23:55:31.048Z,99403.19
2018-02-10T23:57:58.626Z,99399.39
